sensor_id;sensor_type;location;lat;lon;timestamp;temperature;humidity
11511;DHT22;5812;48.864;9.190;2022-07-06T00:01:17;17.50;98.00
11511;DHT22;5812;48.864;9.190;2022-07-06T00:03:43;17.50;95.40
11511;DHT22;5812;48.864;9.190;2022-07-06T00:06:09;17.50;92.40
11511;DHT22;5812;48.864;9.190;2022-07-06T00:08:34;17.50;89.10
11511;DHT22;5812;48.864;9.190;2022-07-06T00:11:00;17.50;99.30
11511;DHT22;5812;48.864;9.190;2022-07-06T00:13:26;17.40;99.90
11511;DHT22;5812;48.864;9.190;2022-07-06T00:15:52;19.10;96.20
11511;DHT22;5812;48.864;9.190;2022-07-06T00:18:18;17.30;99.10
11511;DHT22;5812;48.864;9.190;2022-07-06T00:20:43;17.30;96.70
11511;DHT22;5812;48.864;9.190;2022-07-06T00:23:09;17.20;99.50
11511;DHT22;5812;48.864;9.190;2022-07-06T00:25:35;17.20;99.90
11511;DHT22;5812;48.864;9.190;2022-07-06T00:28:00;17.50;99.90
11511;DHT22;5812;48.864;9.190;2022-07-06T00:30:26;17.20;99.90
11511;DHT22;5812;48.864;9.190;2022-07-06T00:32:51;17.10;99.90
11511;DHT22;5812;48.864;9.190;2022-07-06T00:35:17;17.10;99.90
11511;DHT22;5812;48.864;9.190;2022-07-06T00:37:43;17.10;99.90
11511;DHT22;5812;48.864;9.190;2022-07-06T00:40:09;17.10;99.90
11511;DHT22;5812;48.864;9.190;2022-07-06T00:42:45;17.00;99.90
11511;DHT22;5812;48.864;9.190;2022-07-06T00:45:12;16.90;99.90
11511;DHT22;5812;48.864;9.190;2022-07-06T00:47:39;16.80;99.90
11511;DHT22;5812;48.864;9.190;2022-07-06T00:50:05;16.90;99.90
11511;DHT22;5812;48.864;9.190;2022-07-06T00:52:52;16.90;99.90
11511;DHT22;5812;48.864;9.190;2022-07-06T00:55:20;16.80;99.90
11511;DHT22;5812;48.864;9.190;2022-07-06T00:57:47;17.70;99.90
11511;DHT22;5812;48.864;9.190;2022-07-06T01:00:15;16.80;99.90
11511;DHT22;5812;48.864;9.190;2022-07-06T01:02:41;16.80;99.90
11511;DHT22;5812;48.864;9.190;2022-07-06T01:05:08;16.80;99.90
11511;DHT22;5812;48.864;9.190;2022-07-06T01:07:35;16.80;99.90
11511;DHT22;5812;48.864;9.190;2022-07-06T01:10:03;16.80;99.90
11511;DHT22;5812;48.864;9.190;2022-07-06T01:12:30;16.70;99.90
11511;DHT22;5812;48.864;9.190;2022-07-06T01:14:56;16.70;99.90
11511;DHT22;5812;48.864;9.190;2022-07-06T01:17:22;16.70;99.90
11511;DHT22;5812;48.864;9.190;2022-07-06T01:19:49;16.70;99.90
11511;DHT22;5812;48.864;9.190;2022-07-06T01:22:15;16.70;99.90
11511;DHT22;5812;48.864;9.190;2022-07-06T01:24:40;16.60;99.90
11511;DHT22;5812;48.864;9.190;2022-07-06T01:27:07;16.60;99.90
11511;DHT22;5812;48.864;9.190;2022-07-06T01:29:35;16.60;99.90
11511;DHT22;5812;48.864;9.190;2022-07-06T01:35:24;16.50;99.90
11511;DHT22;5812;48.864;9.190;2022-07-06T01:37:51;16.40;99.90
11511;DHT22;5812;48.864;9.190;2022-07-06T01:40:17;16.40;99.90
11511;DHT22;5812;48.864;9.190;2022-07-06T01:42:43;16.50;99.90
11511;DHT22;5812;48.864;9.190;2022-07-06T01:45:09;16.40;99.90
11511;DHT22;5812;48.864;9.190;2022-07-06T01:47:35;16.40;99.90
11511;DHT22;5812;48.864;9.190;2022-07-06T01:50:03;17.70;99.90
11511;DHT22;5812;48.864;9.190;2022-07-06T01:52:29;16.30;99.90
11511;DHT22;5812;48.864;9.190;2022-07-06T01:54:55;16.30;99.90
11511;DHT22;5812;48.864;9.190;2022-07-06T01:57:21;16.20;99.90
11511;DHT22;5812;48.864;9.190;2022-07-06T01:59:47;16.20;99.90
11511;DHT22;5812;48.864;9.190;2022-07-06T02:02:12;16.20;99.90
11511;DHT22;5812;48.864;9.190;2022-07-06T02:04:39;16.20;99.90
11511;DHT22;5812;48.864;9.190;2022-07-06T02:07:04;16.20;99.90
11511;DHT22;5812;48.864;9.190;2022-07-06T02:09:30;16.10;99.90
11511;DHT22;5812;48.864;9.190;2022-07-06T02:11:55;16.10;99.90
11511;DHT22;5812;48.864;9.190;2022-07-06T02:14:21;16.00;99.90
11511;DHT22;5812;48.864;9.190;2022-07-06T02:16:47;16.10;99.90
11511;DHT22;5812;48.864;9.190;2022-07-06T02:19:12;16.00;99.90
11511;DHT22;5812;48.864;9.190;2022-07-06T02:21:38;16.00;99.90
11511;DHT22;5812;48.864;9.190;2022-07-06T02:24:04;16.50;99.90
11511;DHT22;5812;48.864;9.190;2022-07-06T02:26:29;16.00;99.90
11511;DHT22;5812;48.864;9.190;2022-07-06T02:28:55;15.90;99.90
11511;DHT22;5812;48.864;9.190;2022-07-06T02:31:20;15.90;99.90
11511;DHT22;5812;48.864;9.190;2022-07-06T02:33:46;15.90;99.90
11511;DHT22;5812;48.864;9.190;2022-07-06T02:36:12;15.80;99.90
11511;DHT22;5812;48.864;9.190;2022-07-06T02:38:37;15.80;99.90
11511;DHT22;5812;48.864;9.190;2022-07-06T02:41:03;15.80;99.90
11511;DHT22;5812;48.864;9.190;2022-07-06T02:43:28;16.20;99.90
11511;DHT22;5812;48.864;9.190;2022-07-06T02:45:54;15.70;99.90
11511;DHT22;5812;48.864;9.190;2022-07-06T02:48:20;15.70;99.90
11511;DHT22;5812;48.864;9.190;2022-07-06T02:50:47;15.60;99.90
11511;DHT22;5812;48.864;9.190;2022-07-06T02:53:13;15.70;99.90
11511;DHT22;5812;48.864;9.190;2022-07-06T02:55:38;15.60;99.90
11511;DHT22;5812;48.864;9.190;2022-07-06T02:58:04;15.50;99.90
11511;DHT22;5812;48.864;9.190;2022-07-06T03:00:29;15.60;99.90
11511;DHT22;5812;48.864;9.190;2022-07-06T03:02:55;15.40;99.90
11511;DHT22;5812;48.864;9.190;2022-07-06T03:05:20;15.40;99.90
11511;DHT22;5812;48.864;9.190;2022-07-06T03:07:46;17.30;99.90
11511;DHT22;5812;48.864;9.190;2022-07-06T03:10:12;15.40;99.90
11511;DHT22;5812;48.864;9.190;2022-07-06T03:12:37;15.40;99.90
11511;DHT22;5812;48.864;9.190;2022-07-06T03:15:03;15.40;1.00
11511;DHT22;5812;48.864;9.190;2022-07-06T03:17:29;15.30;1.00
11511;DHT22;5812;48.864;9.190;2022-07-06T03:19:54;15.30;1.00
11511;DHT22;5812;48.864;9.190;2022-07-06T03:22:20;15.40;1.00
11511;DHT22;5812;48.864;9.190;2022-07-06T03:24:45;15.30;1.00
11511;DHT22;5812;48.864;9.190;2022-07-06T03:27:11;15.30;1.00
11511;DHT22;5812;48.864;9.190;2022-07-06T03:29:37;15.20;1.00
11511;DHT22;5812;48.864;9.190;2022-07-06T03:32:02;15.20;1.00
11511;DHT22;5812;48.864;9.190;2022-07-06T03:34:28;15.20;1.00
11511;DHT22;5812;48.864;9.190;2022-07-06T03:36:54;15.30;1.00
11511;DHT22;5812;48.864;9.190;2022-07-06T03:39:19;15.20;1.00
11511;DHT22;5812;48.864;9.190;2022-07-06T03:41:45;15.20;1.00
11511;DHT22;5812;48.864;9.190;2022-07-06T03:44:11;15.10;60.50
11511;DHT22;5812;48.864;9.190;2022-07-06T03:46:36;15.30;99.90
11511;DHT22;5812;48.864;9.190;2022-07-06T03:49:02;15.00;96.30
11511;DHT22;5812;48.864;9.190;2022-07-06T03:51:28;15.00;99.90
11511;DHT22;5812;48.864;9.190;2022-07-06T03:53:54;15.00;99.90
11511;DHT22;5812;48.864;9.190;2022-07-06T03:56:19;15.10;99.90
11511;DHT22;5812;48.864;9.190;2022-07-06T03:58:59;15.00;86.80
11511;DHT22;5812;48.864;9.190;2022-07-06T04:01:25;15.10;63.70
11511;DHT22;5812;48.864;9.190;2022-07-06T04:03:50;16.40;99.90
11511;DHT22;5812;48.864;9.190;2022-07-06T04:06:16;15.10;99.60
11511;DHT22;5812;48.864;9.190;2022-07-06T04:08:42;15.20;69.10
11511;DHT22;5812;48.864;9.190;2022-07-06T04:11:08;15.30;77.70
11511;DHT22;5812;48.864;9.190;2022-07-06T04:13:33;15.20;69.50
11511;DHT22;5812;48.864;9.190;2022-07-06T04:15:59;15.30;93.00
11511;DHT22;5812;48.864;9.190;2022-07-06T04:18:25;15.30;99.90
11511;DHT22;5812;48.864;9.190;2022-07-06T04:20:51;17.00;87.30
11511;DHT22;5812;48.864;9.190;2022-07-06T04:23:16;15.40;81.70
11511;DHT22;5812;48.864;9.190;2022-07-06T04:25:42;15.40;99.90
11511;DHT22;5812;48.864;9.190;2022-07-06T04:28:07;15.50;98.60
11511;DHT22;5812;48.864;9.190;2022-07-06T04:30:33;15.50;94.10
11511;DHT22;5812;48.864;9.190;2022-07-06T04:32:59;15.60;92.20
11511;DHT22;5812;48.864;9.190;2022-07-06T04:35:24;15.50;96.80
11511;DHT22;5812;48.864;9.190;2022-07-06T04:37:50;17.10;80.00
11511;DHT22;5812;48.864;9.190;2022-07-06T04:40:16;15.70;92.80
11511;DHT22;5812;48.864;9.190;2022-07-06T04:42:42;15.80;62.10
11511;DHT22;5812;48.864;9.190;2022-07-06T04:45:08;16.00;1.00
11511;DHT22;5812;48.864;9.190;2022-07-06T04:47:34;15.90;1.00
11511;DHT22;5812;48.864;9.190;2022-07-06T04:50:01;16.00;1.00
11511;DHT22;5812;48.864;9.190;2022-07-06T04:52:27;15.90;1.00
11511;DHT22;5812;48.864;9.190;2022-07-06T04:54:54;16.10;1.00
11511;DHT22;5812;48.864;9.190;2022-07-06T04:57:19;17.10;1.00
11511;DHT22;5812;48.864;9.190;2022-07-06T04:59:45;16.30;61.90
11511;DHT22;5812;48.864;9.190;2022-07-06T05:02:11;16.30;1.00
11511;DHT22;5812;48.864;9.190;2022-07-06T05:04:37;16.50;1.00
11511;DHT22;5812;48.864;9.190;2022-07-06T05:07:03;16.50;1.00
11511;DHT22;5812;48.864;9.190;2022-07-06T05:09:28;16.50;99.90
11511;DHT22;5812;48.864;9.190;2022-07-06T05:11:54;16.60;99.90
11511;DHT22;5812;48.864;9.190;2022-07-06T05:14:20;16.70;99.90
11511;DHT22;5812;48.864;9.190;2022-07-06T05:16:46;16.80;99.90
11511;DHT22;5812;48.864;9.190;2022-07-06T05:19:11;17.00;99.90
11511;DHT22;5812;48.864;9.190;2022-07-06T05:21:37;17.00;99.90
11511;DHT22;5812;48.864;9.190;2022-07-06T05:24:03;17.10;99.90
11511;DHT22;5812;48.864;9.190;2022-07-06T05:26:29;17.30;99.90
11511;DHT22;5812;48.864;9.190;2022-07-06T05:28:54;17.30;99.90
11511;DHT22;5812;48.864;9.190;2022-07-06T05:31:20;18.00;99.90
11511;DHT22;5812;48.864;9.190;2022-07-06T05:33:46;17.50;99.90
11511;DHT22;5812;48.864;9.190;2022-07-06T05:36:11;17.80;99.90
11511;DHT22;5812;48.864;9.190;2022-07-06T05:38:37;17.90;99.90
11511;DHT22;5812;48.864;9.190;2022-07-06T05:41:02;18.00;99.90
11511;DHT22;5812;48.864;9.190;2022-07-06T05:43:28;18.20;99.90
11511;DHT22;5812;48.864;9.190;2022-07-06T05:45:54;18.40;99.90
11511;DHT22;5812;48.864;9.190;2022-07-06T05:48:19;18.50;99.90
11511;DHT22;5812;48.864;9.190;2022-07-06T05:51:03;18.50;99.90
11511;DHT22;5812;48.864;9.190;2022-07-06T05:53:29;18.60;99.90
11511;DHT22;5812;48.864;9.190;2022-07-06T05:55:54;18.80;93.00
11511;DHT22;5812;48.864;9.190;2022-07-06T05:58:20;18.90;99.90
11511;DHT22;5812;48.864;9.190;2022-07-06T06:00:46;19.00;99.90
11511;DHT22;5812;48.864;9.190;2022-07-06T06:03:11;19.10;65.90
11511;DHT22;5812;48.864;9.190;2022-07-06T06:05:37;19.20;55.40
11511;DHT22;5812;48.864;9.190;2022-07-06T06:08:03;19.50;48.70
11511;DHT22;5812;48.864;9.190;2022-07-06T06:10:29;20.00;33.20
11511;DHT22;5812;48.864;9.190;2022-07-06T06:12:54;20.00;6.80
11511;DHT22;5812;48.864;9.190;2022-07-06T06:15:20;20.20;12.60
11511;DHT22;5812;48.864;9.190;2022-07-06T06:17:46;20.40;8.30
11511;DHT22;5812;48.864;9.190;2022-07-06T06:20:13;20.40;1.20
11511;DHT22;5812;48.864;9.190;2022-07-06T06:22:50;20.60;1.00
11511;DHT22;5812;48.864;9.190;2022-07-06T06:25:19;20.60;1.00
11511;DHT22;5812;48.864;9.190;2022-07-06T06:27:45;20.50;9.20
11511;DHT22;5812;48.864;9.190;2022-07-06T06:30:12;20.60;1.00
11511;DHT22;5812;48.864;9.190;2022-07-06T06:32:38;20.70;1.00
11511;DHT22;5812;48.864;9.190;2022-07-06T06:35:04;21.20;1.00
11511;DHT22;5812;48.864;9.190;2022-07-06T06:37:30;21.40;1.00
11511;DHT22;5812;48.864;9.190;2022-07-06T06:39:56;21.10;1.00
11511;DHT22;5812;48.864;9.190;2022-07-06T06:42:21;21.00;1.00
11511;DHT22;5812;48.864;9.190;2022-07-06T06:44:47;21.20;1.00
11511;DHT22;5812;48.864;9.190;2022-07-06T06:47:13;21.20;1.00
11511;DHT22;5812;48.864;9.190;2022-07-06T06:49:38;20.90;1.00
11511;DHT22;5812;48.864;9.190;2022-07-06T06:52:04;21.10;1.00
11511;DHT22;5812;48.864;9.190;2022-07-06T06:54:30;21.40;1.00
11511;DHT22;5812;48.864;9.190;2022-07-06T06:56:55;21.50;1.00
11511;DHT22;5812;48.864;9.190;2022-07-06T06:59:21;21.40;1.00
11511;DHT22;5812;48.864;9.190;2022-07-06T07:01:47;21.10;1.00
11511;DHT22;5812;48.864;9.190;2022-07-06T07:04:13;21.20;1.00
11511;DHT22;5812;48.864;9.190;2022-07-06T07:06:39;21.20;1.00
11511;DHT22;5812;48.864;9.190;2022-07-06T07:09:04;21.40;1.00
11511;DHT22;5812;48.864;9.190;2022-07-06T07:11:30;21.50;1.00
11511;DHT22;5812;48.864;9.190;2022-07-06T07:13:56;21.70;1.00
11511;DHT22;5812;48.864;9.190;2022-07-06T07:16:22;21.80;1.00
11511;DHT22;5812;48.864;9.190;2022-07-06T07:18:50;22.00;1.00
11511;DHT22;5812;48.864;9.190;2022-07-06T07:21:15;22.00;1.00
11511;DHT22;5812;48.864;9.190;2022-07-06T07:23:41;22.10;1.00
11511;DHT22;5812;48.864;9.190;2022-07-06T07:26:06;22.10;1.00
11511;DHT22;5812;48.864;9.190;2022-07-06T07:28:32;22.10;1.00
11511;DHT22;5812;48.864;9.190;2022-07-06T07:30:58;22.40;1.00
11511;DHT22;5812;48.864;9.190;2022-07-06T07:33:23;22.50;1.00
11511;DHT22;5812;48.864;9.190;2022-07-06T07:35:49;22.50;1.00
11511;DHT22;5812;48.864;9.190;2022-07-06T07:38:14;22.70;1.00
11511;DHT22;5812;48.864;9.190;2022-07-06T07:40:40;23.10;1.00
11511;DHT22;5812;48.864;9.190;2022-07-06T07:43:06;23.20;1.00
11511;DHT22;5812;48.864;9.190;2022-07-06T07:45:31;23.00;1.00
11511;DHT22;5812;48.864;9.190;2022-07-06T07:47:57;23.10;1.00
11511;DHT22;5812;48.864;9.190;2022-07-06T07:50:23;23.20;1.00
11511;DHT22;5812;48.864;9.190;2022-07-06T07:52:49;23.10;1.00
11511;DHT22;5812;48.864;9.190;2022-07-06T07:55:15;23.10;1.00
11511;DHT22;5812;48.864;9.190;2022-07-06T07:57:40;23.40;1.00
11511;DHT22;5812;48.864;9.190;2022-07-06T08:00:06;23.50;1.00
11511;DHT22;5812;48.864;9.190;2022-07-06T08:02:32;23.50;1.00
11511;DHT22;5812;48.864;9.190;2022-07-06T08:04:58;23.50;1.00
11511;DHT22;5812;48.864;9.190;2022-07-06T08:07:23;23.90;1.00
11511;DHT22;5812;48.864;9.190;2022-07-06T08:09:49;23.90;1.00
11511;DHT22;5812;48.864;9.190;2022-07-06T08:12:15;23.60;1.00
11511;DHT22;5812;48.864;9.190;2022-07-06T08:14:40;23.50;1.00
11511;DHT22;5812;48.864;9.190;2022-07-06T08:17:06;23.80;1.00
11511;DHT22;5812;48.864;9.190;2022-07-06T08:19:31;23.90;1.00
11511;DHT22;5812;48.864;9.190;2022-07-06T08:21:57;23.80;1.00
11511;DHT22;5812;48.864;9.190;2022-07-06T08:24:23;24.20;1.00
11511;DHT22;5812;48.864;9.190;2022-07-06T08:26:49;24.20;1.00
11511;DHT22;5812;48.864;9.190;2022-07-06T08:29:15;24.20;1.00
11511;DHT22;5812;48.864;9.190;2022-07-06T08:31:41;24.30;1.00
11511;DHT22;5812;48.864;9.190;2022-07-06T08:34:06;24.40;1.00
11511;DHT22;5812;48.864;9.190;2022-07-06T08:36:32;24.30;1.00
11511;DHT22;5812;48.864;9.190;2022-07-06T08:38:58;24.40;1.00
11511;DHT22;5812;48.864;9.190;2022-07-06T08:41:25;24.80;1.00
11511;DHT22;5812;48.864;9.190;2022-07-06T08:43:52;25.00;1.00
11511;DHT22;5812;48.864;9.190;2022-07-06T08:46:19;25.00;1.00
11511;DHT22;5812;48.864;9.190;2022-07-06T08:48:45;25.10;1.00
11511;DHT22;5812;48.864;9.190;2022-07-06T08:51:13;25.40;1.00
11511;DHT22;5812;48.864;9.190;2022-07-06T08:53:42;25.10;1.00
11511;DHT22;5812;48.864;9.190;2022-07-06T08:56:08;25.10;1.00
11511;DHT22;5812;48.864;9.190;2022-07-06T08:58:34;25.70;1.00
11511;DHT22;5812;48.864;9.190;2022-07-06T09:01:00;25.90;1.00
11511;DHT22;5812;48.864;9.190;2022-07-06T09:03:26;25.80;1.00
11511;DHT22;5812;48.864;9.190;2022-07-06T09:05:52;25.80;1.00
11511;DHT22;5812;48.864;9.190;2022-07-06T09:08:22;25.80;1.00
11511;DHT22;5812;48.864;9.190;2022-07-06T09:10:49;25.70;1.00
11511;DHT22;5812;48.864;9.190;2022-07-06T09:13:15;25.70;1.00
11511;DHT22;5812;48.864;9.190;2022-07-06T09:15:40;25.80;1.00
11511;DHT22;5812;48.864;9.190;2022-07-06T09:18:07;26.10;1.00
11511;DHT22;5812;48.864;9.190;2022-07-06T09:20:33;26.30;1.00
11511;DHT22;5812;48.864;9.190;2022-07-06T09:23:04;26.30;1.00
11511;DHT22;5812;48.864;9.190;2022-07-06T09:25:30;26.30;1.00
11511;DHT22;5812;48.864;9.190;2022-07-06T09:27:57;26.20;1.00
11511;DHT22;5812;48.864;9.190;2022-07-06T09:30:24;26.10;1.00
11511;DHT22;5812;48.864;9.190;2022-07-06T09:32:52;26.10;1.00
11511;DHT22;5812;48.864;9.190;2022-07-06T09:35:29;26.60;1.00
11511;DHT22;5812;48.864;9.190;2022-07-06T09:38:12;26.30;1.00
11511;DHT22;5812;48.864;9.190;2022-07-06T09:40:43;26.00;1.00
11511;DHT22;5812;48.864;9.190;2022-07-06T09:43:17;26.10;1.00
11511;DHT22;5812;48.864;9.190;2022-07-06T09:45:46;26.00;1.00
11511;DHT22;5812;48.864;9.190;2022-07-06T09:48:15;25.70;1.00
11511;DHT22;5812;48.864;9.190;2022-07-06T09:50:49;26.50;1.00
11511;DHT22;5812;48.864;9.190;2022-07-06T09:53:19;26.60;1.00
11511;DHT22;5812;48.864;9.190;2022-07-06T09:55:50;26.10;1.00
11511;DHT22;5812;48.864;9.190;2022-07-06T09:58:17;25.80;1.00
11511;DHT22;5812;48.864;9.190;2022-07-06T10:00:44;25.80;1.00
11511;DHT22;5812;48.864;9.190;2022-07-06T10:03:10;26.00;1.00
11511;DHT22;5812;48.864;9.190;2022-07-06T10:05:38;26.30;1.00
11511;DHT22;5812;48.864;9.190;2022-07-06T10:08:05;26.80;1.00
11511;DHT22;5812;48.864;9.190;2022-07-06T10:10:32;27.10;1.00
11511;DHT22;5812;48.864;9.190;2022-07-06T10:12:59;27.20;1.00
11511;DHT22;5812;48.864;9.190;2022-07-06T10:15:27;27.50;1.00
11511;DHT22;5812;48.864;9.190;2022-07-06T10:17:55;27.40;1.00
11511;DHT22;5812;48.864;9.190;2022-07-06T10:20:21;27.80;1.00
11511;DHT22;5812;48.864;9.190;2022-07-06T10:22:48;28.10;1.00
11511;DHT22;5812;48.864;9.190;2022-07-06T10:25:18;29.10;1.00
11511;DHT22;5812;48.864;9.190;2022-07-06T10:27:46;28.10;1.00
11511;DHT22;5812;48.864;9.190;2022-07-06T10:30:12;27.20;1.00
11511;DHT22;5812;48.864;9.190;2022-07-06T10:32:41;27.70;1.00
11511;DHT22;5812;48.864;9.190;2022-07-06T10:35:08;27.90;1.00
11511;DHT22;5812;48.864;9.190;2022-07-06T10:37:33;27.70;1.00
11511;DHT22;5812;48.864;9.190;2022-07-06T10:39:59;27.50;1.00
11511;DHT22;5812;48.864;9.190;2022-07-06T10:45:13;27.80;1.00
11511;DHT22;5812;48.864;9.190;2022-07-06T10:47:40;28.20;1.00
11511;DHT22;5812;48.864;9.190;2022-07-06T10:50:07;28.10;1.00
11511;DHT22;5812;48.864;9.190;2022-07-06T10:53:11;28.60;1.00
11511;DHT22;5812;48.864;9.190;2022-07-06T10:55:40;29.00;1.00
11511;DHT22;5812;48.864;9.190;2022-07-06T10:58:06;29.30;1.00
11511;DHT22;5812;48.864;9.190;2022-07-06T11:00:51;29.80;1.00
11511;DHT22;5812;48.864;9.190;2022-07-06T11:03:33;30.10;1.00
11511;DHT22;5812;48.864;9.190;2022-07-06T11:08:52;29.80;1.00
11511;DHT22;5812;48.864;9.190;2022-07-06T11:11:23;30.10;1.00
11511;DHT22;5812;48.864;9.190;2022-07-06T11:13:52;31.10;1.00
11511;DHT22;5812;48.864;9.190;2022-07-06T11:16:18;31.30;1.00
11511;DHT22;5812;48.864;9.190;2022-07-06T11:18:49;31.70;1.00
11511;DHT22;5812;48.864;9.190;2022-07-06T11:21:22;31.60;1.00
11511;DHT22;5812;48.864;9.190;2022-07-06T11:23:49;30.90;1.00
11511;DHT22;5812;48.864;9.190;2022-07-06T11:26:16;30.40;1.00
11511;DHT22;5812;48.864;9.190;2022-07-06T11:28:42;30.30;1.00
11511;DHT22;5812;48.864;9.190;2022-07-06T11:31:10;29.40;1.00
11511;DHT22;5812;48.864;9.190;2022-07-06T11:33:36;29.90;1.00
11511;DHT22;5812;48.864;9.190;2022-07-06T11:38:41;31.60;1.00
11511;DHT22;5812;48.864;9.190;2022-07-06T11:41:07;31.60;1.00
11511;DHT22;5812;48.864;9.190;2022-07-06T11:43:33;31.80;1.00
11511;DHT22;5812;48.864;9.190;2022-07-06T11:45:58;31.60;1.00
11511;DHT22;5812;48.864;9.190;2022-07-06T11:48:24;32.00;1.00
11511;DHT22;5812;48.864;9.190;2022-07-06T11:53:24;31.40;1.00
11511;DHT22;5812;48.864;9.190;2022-07-06T11:55:50;30.30;1.00
11511;DHT22;5812;48.864;9.190;2022-07-06T11:58:20;30.00;1.00
11511;DHT22;5812;48.864;9.190;2022-07-06T12:01:09;30.90;1.00
11511;DHT22;5812;48.864;9.190;2022-07-06T12:03:35;33.50;1.00
11511;DHT22;5812;48.864;9.190;2022-07-06T12:06:03;33.70;1.00
11511;DHT22;5812;48.864;9.190;2022-07-06T12:08:29;33.80;1.00
11511;DHT22;5812;48.864;9.190;2022-07-06T12:10:55;35.10;1.00
11511;DHT22;5812;48.864;9.190;2022-07-06T12:13:21;35.30;1.00
11511;DHT22;5812;48.864;9.190;2022-07-06T12:15:46;34.70;1.00
11511;DHT22;5812;48.864;9.190;2022-07-06T12:18:12;34.80;1.00
11511;DHT22;5812;48.864;9.190;2022-07-06T12:20:38;33.80;1.00
11511;DHT22;5812;48.864;9.190;2022-07-06T12:23:05;33.40;1.00
11511;DHT22;5812;48.864;9.190;2022-07-06T12:25:35;33.30;1.00
11511;DHT22;5812;48.864;9.190;2022-07-06T12:28:02;34.20;1.00
11511;DHT22;5812;48.864;9.190;2022-07-06T12:30:28;35.60;1.00
11511;DHT22;5812;48.864;9.190;2022-07-06T12:33:13;34.80;1.00
11511;DHT22;5812;48.864;9.190;2022-07-06T12:35:41;35.00;1.00
11511;DHT22;5812;48.864;9.190;2022-07-06T12:38:07;35.20;1.00
11511;DHT22;5812;48.864;9.190;2022-07-06T12:40:32;36.00;1.00
11511;DHT22;5812;48.864;9.190;2022-07-06T12:42:58;36.10;1.00
11511;DHT22;5812;48.864;9.190;2022-07-06T12:45:28;36.60;1.00
11511;DHT22;5812;48.864;9.190;2022-07-06T12:48:02;37.60;1.00
11511;DHT22;5812;48.864;9.190;2022-07-06T12:50:38;36.30;1.00
11511;DHT22;5812;48.864;9.190;2022-07-06T12:53:06;36.40;1.00
11511;DHT22;5812;48.864;9.190;2022-07-06T12:55:36;36.70;1.00
11511;DHT22;5812;48.864;9.190;2022-07-06T12:58:02;36.10;1.00
11511;DHT22;5812;48.864;9.190;2022-07-06T13:00:28;35.90;1.00
11511;DHT22;5812;48.864;9.190;2022-07-06T13:02:54;35.50;1.00
11511;DHT22;5812;48.864;9.190;2022-07-06T13:05:26;37.00;1.00
11511;DHT22;5812;48.864;9.190;2022-07-06T13:07:58;37.30;1.00
11511;DHT22;5812;48.864;9.190;2022-07-06T13:10:24;36.90;1.00
11511;DHT22;5812;48.864;9.190;2022-07-06T13:12:50;36.40;1.00
11511;DHT22;5812;48.864;9.190;2022-07-06T13:15:16;36.40;1.00
11511;DHT22;5812;48.864;9.190;2022-07-06T13:17:43;36.00;1.00
11511;DHT22;5812;48.864;9.190;2022-07-06T13:20:11;35.30;1.00
11511;DHT22;5812;48.864;9.190;2022-07-06T13:22:38;35.80;1.00
11511;DHT22;5812;48.864;9.190;2022-07-06T13:25:04;36.10;1.00
11511;DHT22;5812;48.864;9.190;2022-07-06T13:27:30;36.00;1.00
11511;DHT22;5812;48.864;9.190;2022-07-06T13:29:56;36.30;1.00
11511;DHT22;5812;48.864;9.190;2022-07-06T13:32:22;33.50;1.00
11511;DHT22;5812;48.864;9.190;2022-07-06T13:34:47;31.00;1.00
11511;DHT22;5812;48.864;9.190;2022-07-06T13:37:13;32.00;1.00
11511;DHT22;5812;48.864;9.190;2022-07-06T13:39:39;34.00;1.00
11511;DHT22;5812;48.864;9.190;2022-07-06T13:42:05;35.70;1.00
11511;DHT22;5812;48.864;9.190;2022-07-06T13:44:30;36.50;1.00
11511;DHT22;5812;48.864;9.190;2022-07-06T13:46:56;37.70;1.00
11511;DHT22;5812;48.864;9.190;2022-07-06T13:49:22;37.10;1.00
11511;DHT22;5812;48.864;9.190;2022-07-06T13:51:47;37.50;1.00
11511;DHT22;5812;48.864;9.190;2022-07-06T13:54:13;37.00;1.00
11511;DHT22;5812;48.864;9.190;2022-07-06T13:56:39;35.60;1.00
11511;DHT22;5812;48.864;9.190;2022-07-06T13:59:06;35.80;1.00
11511;DHT22;5812;48.864;9.190;2022-07-06T14:01:32;35.30;1.00
11511;DHT22;5812;48.864;9.190;2022-07-06T14:03:58;36.30;1.00
11511;DHT22;5812;48.864;9.190;2022-07-06T14:06:24;36.50;1.00
11511;DHT22;5812;48.864;9.190;2022-07-06T14:08:50;36.40;1.00
11511;DHT22;5812;48.864;9.190;2022-07-06T14:11:16;36.30;1.00
11511;DHT22;5812;48.864;9.190;2022-07-06T14:13:42;35.80;1.00
11511;DHT22;5812;48.864;9.190;2022-07-06T14:16:09;37.20;1.00
11511;DHT22;5812;48.864;9.190;2022-07-06T14:18:35;38.20;1.00
11511;DHT22;5812;48.864;9.190;2022-07-06T14:21:00;37.10;1.00
11511;DHT22;5812;48.864;9.190;2022-07-06T14:23:26;36.10;1.00
11511;DHT22;5812;48.864;9.190;2022-07-06T14:25:53;36.70;1.00
11511;DHT22;5812;48.864;9.190;2022-07-06T14:28:20;37.30;1.00
11511;DHT22;5812;48.864;9.190;2022-07-06T14:30:46;37.00;1.00
11511;DHT22;5812;48.864;9.190;2022-07-06T14:33:13;34.40;1.00
11511;DHT22;5812;48.864;9.190;2022-07-06T14:35:41;34.40;1.00
11511;DHT22;5812;48.864;9.190;2022-07-06T14:38:07;35.00;1.00
11511;DHT22;5812;48.864;9.190;2022-07-06T14:40:34;35.10;1.00
11511;DHT22;5812;48.864;9.190;2022-07-06T14:43:00;34.40;1.00
11511;DHT22;5812;48.864;9.190;2022-07-06T14:45:26;33.40;1.00
11511;DHT22;5812;48.864;9.190;2022-07-06T14:47:52;32.10;1.00
11511;DHT22;5812;48.864;9.190;2022-07-06T14:50:19;31.60;1.00
11511;DHT22;5812;48.864;9.190;2022-07-06T14:52:45;30.90;1.00
11511;DHT22;5812;48.864;9.190;2022-07-06T14:55:11;30.70;1.00
11511;DHT22;5812;48.864;9.190;2022-07-06T14:57:37;29.80;1.00
11511;DHT22;5812;48.864;9.190;2022-07-06T15:00:03;29.50;1.00
11511;DHT22;5812;48.864;9.190;2022-07-06T15:02:30;29.40;1.00
11511;DHT22;5812;48.864;9.190;2022-07-06T15:04:55;30.30;1.00
11511;DHT22;5812;48.864;9.190;2022-07-06T15:07:21;30.80;1.00
11511;DHT22;5812;48.864;9.190;2022-07-06T15:09:47;31.20;1.00
11511;DHT22;5812;48.864;9.190;2022-07-06T15:12:13;30.60;1.00
11511;DHT22;5812;48.864;9.190;2022-07-06T15:14:38;30.40;1.00
11511;DHT22;5812;48.864;9.190;2022-07-06T15:17:04;29.80;1.00
11511;DHT22;5812;48.864;9.190;2022-07-06T15:19:30;29.60;1.00
11511;DHT22;5812;48.864;9.190;2022-07-06T15:21:56;30.30;1.00
11511;DHT22;5812;48.864;9.190;2022-07-06T15:24:21;30.80;1.00
11511;DHT22;5812;48.864;9.190;2022-07-06T15:26:48;30.70;1.00
11511;DHT22;5812;48.864;9.190;2022-07-06T15:29:14;30.20;1.00
11511;DHT22;5812;48.864;9.190;2022-07-06T15:31:39;29.70;1.00
11511;DHT22;5812;48.864;9.190;2022-07-06T15:34:05;28.50;1.00
11511;DHT22;5812;48.864;9.190;2022-07-06T15:36:31;27.80;1.00
11511;DHT22;5812;48.864;9.190;2022-07-06T15:38:56;26.90;1.00
11511;DHT22;5812;48.864;9.190;2022-07-06T15:41:22;26.40;1.00
11511;DHT22;5812;48.864;9.190;2022-07-06T15:43:48;26.20;1.00
11511;DHT22;5812;48.864;9.190;2022-07-06T15:46:13;25.80;1.00
11511;DHT22;5812;48.864;9.190;2022-07-06T15:48:39;25.60;1.00
11511;DHT22;5812;48.864;9.190;2022-07-06T15:51:04;25.50;1.00
11511;DHT22;5812;48.864;9.190;2022-07-06T15:53:31;25.40;1.00
11511;DHT22;5812;48.864;9.190;2022-07-06T15:55:58;25.30;1.00
11511;DHT22;5812;48.864;9.190;2022-07-06T15:58:24;25.20;1.00
11511;DHT22;5812;48.864;9.190;2022-07-06T16:00:50;25.20;1.00
11511;DHT22;5812;48.864;9.190;2022-07-06T16:03:15;24.90;1.00
11511;DHT22;5812;48.864;9.190;2022-07-06T16:05:41;24.80;1.00
11511;DHT22;5812;48.864;9.190;2022-07-06T16:08:07;24.90;1.00